createdAt,value
2018-09-29T00:01:41.743Z,3.50
2018-09-29T00:04:24.526Z,3.47
2018-09-29T00:07:07.628Z,3.50
2018-09-29T00:09:50.217Z,4.00
2018-09-29T00:12:33.574Z,3.70
2018-09-29T00:15:16.054Z,2.93
2018-09-29T00:17:59.242Z,3.90
2018-09-29T00:20:42.214Z,3.50
2018-09-29T00:23:25.023Z,3.23
2018-09-29T00:26:08.023Z,3.50
2018-09-29T00:28:51.286Z,3.60
2018-09-29T00:31:33.904Z,4.23
2018-09-29T00:34:16.364Z,3.97
2018-09-29T00:36:59.541Z,3.73
2018-09-29T00:39:42.407Z,3.57
2018-09-29T00:42:25.723Z,3.77
2018-09-29T00:45:08.466Z,3.67
2018-09-29T00:47:51.185Z,3.93
2018-09-29T00:50:34.140Z,3.90
2018-09-29T00:53:17.557Z,3.63
2018-09-29T00:56:00.013Z,4.43
2018-09-29T00:58:43.544Z,3.80
2018-09-29T01:01:26.122Z,3.80
2018-09-29T01:04:08.665Z,4.10
2018-09-29T01:06:51.543Z,4.57
2018-09-29T01:09:34.382Z,3.67
2018-09-29T01:12:17.518Z,3.90
2018-09-29T01:15:00.254Z,4.20
2018-09-29T01:17:42.875Z,3.20
2018-09-29T01:20:25.717Z,3.50
2018-09-29T01:23:08.595Z,3.80
2018-09-29T01:25:51.370Z,3.50
2018-09-29T01:28:36.222Z,3.40
2018-09-29T01:31:19.282Z,2.97
2018-09-29T01:34:02.450Z,3.40
2018-09-29T01:36:45.595Z,3.50
2018-09-29T01:39:28.601Z,3.60
2018-09-29T01:42:11.567Z,3.50
2018-09-29T01:44:54.370Z,3.33
2018-09-29T01:47:37.258Z,3.30
2018-09-29T01:50:19.838Z,3.30
2018-09-29T01:53:03.282Z,3.40
2018-09-29T01:55:45.578Z,3.77
2018-09-29T01:58:28.703Z,4.37
2018-09-29T02:01:11.680Z,3.50
2018-09-29T02:03:55.034Z,3.17
2018-09-29T02:06:37.520Z,4.03
2018-09-29T02:09:20.511Z,3.60
2018-09-29T02:12:03.827Z,3.67
2018-09-29T02:14:46.634Z,3.47
2018-09-29T02:17:29.173Z,3.13
2018-09-29T02:20:11.830Z,4.07
2018-09-29T02:22:54.510Z,3.37
2018-09-29T02:25:37.167Z,3.90
2018-09-29T02:28:20.425Z,3.23
2018-09-29T02:31:03.548Z,4.20
2018-09-29T02:33:46.468Z,2.97
2018-09-29T02:36:30.418Z,4.00
2018-09-29T02:39:13.654Z,4.10
2018-09-29T02:41:56.616Z,3.10
2018-09-29T02:44:40.370Z,4.50
2018-09-29T02:47:23.050Z,3.97
2018-09-29T02:50:06.101Z,3.67
2018-09-29T02:52:49.039Z,3.70
2018-09-29T02:55:31.518Z,3.47
2018-09-29T02:58:14.694Z,3.83
2018-09-29T03:00:57.614Z,3.30
2018-09-29T03:03:41.098Z,3.20
2018-09-29T03:06:24.515Z,3.57
2018-09-29T03:09:08.975Z,3.80
2018-09-29T03:11:51.562Z,3.23
2018-09-29T03:14:34.399Z,3.50
2018-09-29T03:17:16.799Z,3.70
2018-09-29T03:19:59.410Z,3.77
2018-09-29T03:22:42.179Z,3.50
2018-09-29T03:25:25.770Z,3.90
2018-09-29T03:28:08.541Z,3.57
2018-09-29T03:30:51.326Z,3.93
2018-09-29T03:33:33.935Z,3.97
2018-09-29T03:36:16.915Z,3.63
2018-09-29T03:38:59.903Z,3.83
2018-09-29T03:41:42.707Z,4.10
2018-09-29T03:44:25.943Z,3.77
2018-09-29T03:47:08.534Z,3.53
2018-09-29T03:49:51.296Z,3.80
2018-09-29T03:52:34.027Z,3.80
2018-09-29T03:55:16.818Z,3.27
2018-09-29T03:58:00.191Z,3.60
2018-09-29T04:00:42.562Z,4.03
2018-09-29T04:03:25.650Z,3.60
2018-09-29T04:06:08.835Z,4.53
2018-09-29T04:08:51.594Z,3.57
2018-09-29T04:11:34.157Z,3.60
2018-09-29T04:14:16.824Z,4.23
2018-09-29T04:16:59.546Z,3.70
2018-09-29T04:19:42.398Z,3.73
2018-09-29T04:22:25.251Z,4.40
2018-09-29T04:25:07.646Z,4.03
2018-09-29T04:27:50.447Z,4.30
2018-09-29T04:30:34.198Z,4.30
2018-09-29T04:33:16.880Z,3.97
2018-09-29T04:35:59.562Z,4.00
2018-09-29T04:38:42.319Z,3.90
2018-09-29T04:41:25.482Z,3.90
2018-09-29T04:44:08.939Z,4.73
2018-09-29T04:46:51.982Z,3.97
2018-09-29T04:49:34.658Z,5.00
2018-09-29T04:52:17.762Z,5.30
2018-09-29T04:55:00.846Z,3.40
2018-09-29T04:57:43.842Z,4.87
2018-09-29T05:00:26.221Z,4.73
2018-09-29T05:03:08.835Z,4.90
2018-09-29T05:05:51.498Z,5.50
2018-09-29T05:08:34.686Z,6.03
2018-09-29T05:11:17.023Z,5.10
2018-09-29T05:13:59.918Z,5.40
2018-09-29T05:16:42.662Z,5.17
2018-09-29T05:19:25.316Z,4.37
2018-09-29T05:22:07.994Z,4.77
2018-09-29T05:24:50.831Z,5.00
2018-09-29T05:27:33.566Z,4.50
2018-09-29T05:30:16.316Z,5.63
2018-09-29T05:32:59.042Z,5.00
2018-09-29T05:35:42.228Z,5.93
2018-09-29T05:38:24.933Z,4.87
2018-09-29T05:41:07.695Z,5.63
2018-09-29T05:43:50.087Z,4.20
2018-09-29T05:46:33.071Z,5.10
2018-09-29T05:49:15.579Z,6.33
2018-09-29T05:51:58.285Z,6.30
2018-09-29T05:54:41.138Z,6.20
2018-09-29T05:57:23.475Z,5.30
2018-09-29T06:00:06.111Z,5.50
2018-09-29T06:02:49.392Z,14.80
2018-09-29T06:05:32.256Z,15.00
2018-09-29T06:08:14.915Z,12.20
2018-09-29T06:10:57.305Z,22.30
2018-09-29T06:13:40.107Z,24.60
2018-09-29T06:16:22.914Z,26.10
2018-09-29T06:19:05.610Z,25.00
2018-09-29T06:21:48.190Z,26.37
2018-09-29T06:24:31.017Z,16.93
2018-09-29T06:27:13.991Z,17.00
2018-09-29T06:29:56.890Z,17.97
2018-09-29T06:32:40.425Z,20.30
2018-09-29T06:35:23.122Z,17.50
2018-09-29T06:38:06.223Z,15.47
2018-09-29T06:40:49.354Z,12.87
2018-09-29T06:43:31.938Z,15.80
2018-09-29T06:46:15.781Z,16.13
2018-09-29T06:48:58.262Z,17.23
2018-09-29T06:51:40.997Z,13.70
2018-09-29T06:54:23.762Z,16.70
2018-09-29T06:57:06.507Z,19.40
2018-09-29T06:59:49.095Z,16.67
2018-09-29T07:02:31.740Z,16.30
2018-09-29T07:05:14.480Z,12.27
2018-09-29T07:07:57.602Z,12.67
2018-09-29T07:10:40.738Z,15.03
2018-09-29T07:13:23.496Z,14.60
2018-09-29T07:16:06.373Z,10.00
2018-09-29T07:18:50.511Z,7.20
2018-09-29T07:21:33.108Z,8.40
2018-09-29T07:24:15.705Z,8.53
2018-09-29T07:26:58.577Z,6.03
2018-09-29T07:29:42.172Z,5.80
2018-09-29T07:32:25.132Z,5.90
2018-09-29T07:35:07.898Z,6.03
2018-09-29T07:37:50.733Z,5.53
2018-09-29T07:40:33.982Z,5.10
2018-09-29T07:43:17.396Z,5.40
2018-09-29T07:45:59.717Z,4.50
2018-09-29T07:48:42.869Z,5.13
2018-09-29T07:51:25.698Z,5.30
2018-09-29T07:54:09.207Z,5.07
2018-09-29T07:56:52.561Z,4.72
2018-09-29T07:59:36.235Z,5.12
2018-09-29T08:02:18.585Z,4.75
2018-09-29T08:05:01.345Z,5.05
2018-09-29T08:07:44.473Z,5.72
2018-09-29T08:10:27.196Z,5.50
2018-09-29T08:13:10.051Z,5.53
2018-09-29T08:15:52.910Z,5.45
2018-09-29T08:18:37.050Z,5.67
2018-09-29T08:21:19.550Z,5.80
2018-09-29T08:24:03.941Z,4.67
2018-09-29T08:26:48.246Z,5.60
2018-09-29T08:29:31.622Z,4.90
2018-09-29T08:32:14.148Z,5.12
2018-09-29T08:34:57.366Z,5.80
2018-09-29T08:37:40.016Z,4.92
2018-09-29T08:40:22.536Z,5.80
2018-09-29T08:43:05.483Z,7.78
2018-09-29T08:45:48.241Z,6.15
2018-09-29T08:48:31.485Z,7.08
2018-09-29T08:51:14.224Z,7.37
2018-09-29T08:53:57.142Z,6.70
2018-09-29T08:56:40.192Z,7.65
2018-09-29T08:59:22.440Z,6.67
2018-09-29T09:02:05.239Z,6.03
2018-09-29T09:04:48.159Z,6.45
2018-09-29T09:07:31.606Z,6.20
2018-09-29T09:10:14.878Z,6.90
2018-09-29T09:12:57.734Z,6.75
2018-09-29T09:15:40.846Z,5.45
2018-09-29T09:18:24.163Z,5.65
2018-09-29T09:21:10.422Z,5.03
2018-09-29T09:23:52.943Z,5.53
2018-09-29T09:26:35.704Z,5.45
2018-09-29T09:29:18.652Z,6.53
2018-09-29T09:32:01.602Z,6.28
2018-09-29T09:34:45.570Z,5.90
2018-09-29T09:37:29.138Z,5.35
2018-09-29T09:40:14.686Z,6.65
2018-09-29T09:42:58.632Z,5.83
2018-09-29T09:45:40.954Z,5.65
2018-09-29T09:48:23.510Z,5.60
2018-09-29T09:51:06.613Z,6.00
2018-09-29T09:53:49.327Z,5.55
2018-09-29T09:56:32.023Z,4.75
2018-09-29T09:59:14.922Z,5.00
2018-09-29T10:02:04.098Z,5.67
2018-09-29T10:04:46.556Z,5.03
2018-09-29T10:07:29.526Z,5.20
2018-09-29T10:10:12.383Z,6.28
2018-09-29T10:12:55.330Z,5.97
2018-09-29T10:15:38.190Z,6.58
2018-09-29T10:18:21.714Z,7.20
2018-09-29T10:21:04.361Z,6.75
2018-09-29T10:23:46.983Z,7.25
2018-09-29T10:26:29.919Z,7.85
2018-09-29T10:29:12.500Z,7.03
2018-09-29T10:31:55.390Z,6.58
2018-09-29T10:34:38.369Z,6.92
2018-09-29T10:37:21.958Z,7.72
2018-09-29T10:40:05.045Z,7.40
2018-09-29T10:42:48.091Z,7.95
2018-09-29T10:45:30.866Z,8.23
2018-09-29T10:48:13.642Z,8.40
2018-09-29T10:50:56.395Z,7.80
2018-09-29T10:53:39.347Z,7.85
2018-09-29T10:56:22.602Z,7.17
2018-09-29T10:59:05.636Z,7.85
2018-09-29T11:01:48.785Z,8.43
2018-09-29T11:04:31.352Z,8.70
2018-09-29T11:07:13.851Z,8.45
2018-09-29T11:09:57.377Z,7.95
2018-09-29T11:12:41.035Z,8.38
2018-09-29T11:15:23.790Z,8.30
2018-09-29T11:18:06.486Z,8.38
2018-09-29T11:20:49.785Z,8.58
2018-09-29T11:23:32.102Z,7.55
2018-09-29T11:26:15.122Z,7.55
2018-09-29T11:28:58.612Z,7.62
2018-09-29T11:31:41.133Z,7.95
2018-09-29T11:34:24.225Z,7.95
2018-09-29T11:37:07.253Z,8.85
2018-09-29T11:39:50.043Z,7.85
2018-09-29T11:42:33.369Z,9.03
2018-09-29T11:45:15.947Z,8.63
2018-09-29T11:47:58.930Z,7.30
2018-09-29T11:50:42.134Z,7.83
2018-09-29T11:53:25.661Z,8.48
2018-09-29T11:56:08.427Z,7.17
2018-09-29T11:58:51.450Z,8.25
2018-09-29T12:01:34.170Z,8.10
2018-09-29T12:04:17.088Z,8.00
2018-09-29T12:07:00.327Z,8.18
2018-09-29T12:09:43.415Z,7.15
2018-09-29T12:12:26.352Z,8.00
2018-09-29T12:15:09.013Z,8.70
2018-09-29T12:17:52.173Z,7.97
2018-09-29T12:20:37.882Z,8.25
2018-09-29T12:23:20.970Z,7.85
2018-09-29T12:26:03.682Z,8.30
2018-09-29T12:28:46.743Z,7.35
2018-09-29T12:31:29.963Z,7.20
2018-09-29T12:34:12.410Z,8.00
2018-09-29T12:36:55.819Z,8.10
2018-09-29T12:39:38.818Z,9.20
2018-09-29T12:42:21.500Z,7.92
2018-09-29T12:45:04.566Z,8.65
2018-09-29T12:47:47.479Z,8.98
2018-09-29T12:50:30.534Z,9.55
2018-09-29T12:53:13.487Z,9.65
2018-09-29T12:55:56.656Z,8.40
2018-09-29T12:58:39.327Z,8.80
2018-09-29T13:01:22.062Z,8.80
2018-09-29T13:04:04.678Z,9.50
2018-09-29T13:06:47.889Z,9.50
2018-09-29T13:09:31.238Z,10.20
2018-09-29T13:12:14.310Z,10.28
2018-09-29T13:14:56.659Z,10.35
2018-09-29T13:17:39.667Z,11.20
2018-09-29T13:20:22.114Z,10.28
2018-09-29T13:23:05.408Z,12.00
2018-09-29T13:25:48.246Z,10.32
2018-09-29T13:28:31.062Z,11.30
2018-09-29T13:31:14.349Z,10.88
2018-09-29T13:33:57.416Z,11.00
2018-09-29T13:36:40.019Z,11.08
2018-09-29T13:39:22.589Z,10.93
2018-09-29T13:42:05.887Z,10.43
2018-09-29T13:44:49.419Z,11.30
2018-09-29T13:47:32.744Z,11.85
2018-09-29T13:50:15.430Z,12.43
2018-09-29T13:52:58.415Z,10.13
2018-09-29T13:55:41.788Z,11.90
2018-09-29T13:58:26.045Z,11.30
2018-09-29T14:01:08.651Z,11.93
2018-09-29T14:03:51.493Z,11.45
2018-09-29T14:06:35.308Z,11.67
2018-09-29T14:09:17.961Z,11.63
2018-09-29T14:12:01.227Z,10.93
2018-09-29T14:14:44.810Z,12.03
2018-09-29T14:17:28.104Z,11.27
2018-09-29T14:20:12.540Z,10.40
2018-09-29T14:22:55.439Z,11.50
2018-09-29T14:25:38.160Z,11.07
2018-09-29T14:28:22.512Z,10.77
2018-09-29T14:31:06.047Z,10.03
2018-09-29T14:33:49.959Z,10.10
2018-09-29T14:36:32.820Z,9.03
2018-09-29T14:39:16.038Z,10.20
2018-09-29T14:42:02.534Z,10.23
2018-09-29T14:44:46.778Z,9.37
2018-09-29T14:47:29.358Z,10.70
2018-09-29T14:50:16.162Z,9.90
2018-09-29T14:52:59.751Z,10.97
2018-09-29T14:55:45.081Z,11.80
2018-09-29T14:58:29.473Z,11.33
2018-09-29T15:01:13.486Z,12.20
2018-09-29T15:03:56.502Z,12.50
2018-09-29T15:06:41.781Z,13.50
2018-09-29T15:10:08.083Z,11.90
2018-09-29T15:12:51.438Z,11.47
2018-09-29T15:15:35.121Z,10.43
2018-09-29T15:18:18.225Z,12.03
2018-09-29T15:21:01.008Z,10.20
2018-09-29T15:23:44.574Z,10.30
2018-09-29T15:26:28.108Z,10.30
2018-09-29T15:29:11.485Z,11.50
2018-09-29T15:31:55.392Z,10.50
2018-09-29T15:34:38.862Z,10.93
2018-09-29T15:37:21.709Z,10.57
2018-09-29T15:40:06.182Z,9.77
2018-09-29T15:42:49.536Z,9.77
2018-09-29T15:45:32.015Z,10.63
2018-09-29T15:48:15.960Z,10.47
2018-09-29T15:50:58.948Z,11.50
2018-09-29T15:53:42.259Z,11.13
2018-09-29T15:56:26.332Z,11.60
2018-09-29T15:59:09.401Z,10.73
2018-09-29T16:01:53.952Z,11.13
2018-09-29T16:04:37.641Z,12.10
2018-09-29T16:07:20.974Z,12.90
2018-09-29T16:10:04.270Z,13.03
2018-09-29T16:12:48.010Z,14.40
2018-09-29T16:15:33.343Z,13.53
2018-09-29T16:18:26.866Z,14.20
2018-09-29T16:21:10.215Z,13.60
2018-09-29T16:23:53.195Z,12.80
2018-09-29T16:26:37.271Z,13.37
2018-09-29T16:29:20.523Z,13.77
2018-09-29T16:32:03.459Z,11.70
2018-09-29T16:34:47.068Z,10.63
2018-09-29T16:37:31.319Z,10.57
2018-09-29T16:40:14.704Z,9.80
2018-09-29T16:42:58.829Z,10.30
2018-09-29T16:45:42.189Z,9.83
2018-09-29T16:48:25.022Z,9.03
2018-09-29T16:51:08.054Z,8.07
2018-09-29T16:53:50.687Z,9.33
2018-09-29T16:56:33.358Z,8.43
2018-09-29T16:59:16.338Z,7.50
2018-09-29T17:01:59.387Z,8.67
2018-09-29T17:04:42.441Z,8.80
2018-09-29T17:07:25.002Z,8.20
2018-09-29T17:10:07.702Z,8.13
2018-09-29T17:12:50.722Z,8.03
2018-09-29T17:15:33.242Z,8.60
2018-09-29T17:18:16.750Z,9.23
2018-09-29T17:20:59.222Z,8.40
2018-09-29T17:23:41.899Z,8.70
2018-09-29T17:26:24.979Z,7.57
2018-09-29T17:29:07.501Z,8.30
2018-09-29T17:31:50.931Z,8.03
2018-09-29T17:34:33.202Z,7.97
2018-09-29T17:37:16.044Z,7.60
2018-09-29T17:39:58.943Z,8.23
2018-09-29T17:42:42.671Z,8.00
2018-09-29T17:45:25.944Z,7.63
2018-09-29T17:48:08.856Z,7.63
2018-09-29T17:50:51.503Z,7.43
2018-09-29T17:53:34.494Z,8.10
2018-09-29T17:56:16.872Z,7.70
2018-09-29T17:59:00.287Z,7.30
2018-09-29T18:01:42.862Z,7.03
2018-09-29T18:04:25.733Z,7.13
2018-09-29T18:07:08.807Z,7.30
2018-09-29T18:09:52.094Z,6.30
2018-09-29T18:12:35.098Z,6.73
2018-09-29T18:15:17.639Z,6.30
2018-09-29T18:18:00.499Z,6.10
2018-09-29T18:20:50.629Z,6.93
2018-09-29T18:23:34.684Z,6.80
2018-09-29T18:26:17.575Z,6.43
2018-09-29T18:29:00.357Z,6.37
2018-09-29T18:31:43.315Z,6.50
2018-09-29T18:34:25.653Z,6.83
2018-09-29T18:37:08.471Z,5.77
2018-09-29T18:39:51.182Z,6.70
2018-09-29T18:42:34.071Z,6.93
2018-09-29T18:45:17.119Z,6.17
2018-09-29T18:48:00.472Z,6.37
2018-09-29T18:50:46.762Z,7.13
2018-09-29T18:53:29.930Z,7.20
2018-09-29T18:56:12.632Z,6.50
2018-09-29T18:58:55.709Z,6.90
2018-09-29T19:01:38.518Z,7.33
2018-09-29T19:04:21.226Z,7.17
2018-09-29T19:07:04.019Z,6.83
2018-09-29T19:09:47.475Z,7.17
2018-09-29T19:31:13.384Z,6.50
2018-09-29T19:33:56.449Z,6.30
2018-09-29T19:36:39.019Z,7.03
2018-09-29T19:39:21.981Z,7.33
2018-09-29T19:42:04.887Z,6.30
2018-09-29T19:44:48.445Z,6.67
2018-09-29T19:47:32.182Z,6.63
2018-09-29T19:50:14.834Z,5.90
2018-09-29T19:52:58.941Z,6.70
2018-09-29T19:55:41.731Z,6.70
2018-09-29T19:58:24.320Z,6.00
2018-09-29T20:01:07.481Z,6.30
2018-09-29T20:03:50.437Z,6.13
2018-09-29T20:06:33.131Z,7.40
2018-09-29T20:09:16.307Z,6.00
2018-09-29T20:11:58.881Z,6.70
2018-09-29T20:14:42.083Z,7.60
2018-09-29T20:17:24.539Z,6.67
2018-09-29T20:20:07.381Z,6.37
2018-09-29T20:22:50.311Z,6.13
2018-09-29T20:25:33.279Z,6.90
2018-09-29T20:28:16.051Z,6.97
2018-09-29T20:30:58.912Z,6.90
2018-09-29T20:33:42.062Z,8.20
2018-09-29T20:36:24.734Z,6.17
2018-09-29T20:39:10.959Z,6.07
2018-09-29T20:41:53.463Z,6.77
2018-09-29T20:44:36.234Z,6.83
2018-09-29T20:47:19.794Z,6.53
2018-09-29T20:50:03.496Z,6.60
2018-09-29T20:52:47.078Z,6.37
2018-09-29T20:55:29.618Z,6.83
2018-09-29T20:58:13.356Z,6.07
2018-09-29T21:00:56.361Z,6.10
2018-09-29T21:03:39.107Z,5.63
2018-09-29T21:06:22.098Z,6.10
2018-09-29T21:09:06.015Z,6.77
2018-09-29T21:11:48.712Z,6.90
2018-09-29T21:14:31.777Z,6.10
2018-09-29T21:17:14.622Z,5.63
2018-09-29T21:19:57.207Z,5.53
2018-09-29T21:22:39.994Z,6.50
2018-09-29T21:25:23.226Z,6.30
2018-09-29T21:28:06.147Z,5.97
2018-09-29T21:30:49.256Z,5.30
2018-09-29T21:33:31.934Z,5.90
2018-09-29T21:36:15.497Z,7.00
2018-09-29T21:38:58.482Z,5.20
2018-09-29T21:41:42.282Z,6.33
2018-09-29T21:44:25.523Z,5.90
2018-09-29T21:47:09.793Z,5.60
2018-09-29T21:49:52.595Z,5.97
2018-09-29T21:52:35.447Z,6.13
2018-09-29T21:55:20.737Z,6.10
2018-09-29T21:58:06.742Z,5.70
2018-09-29T22:00:49.999Z,5.67
2018-09-29T22:03:35.863Z,5.20
2018-09-29T22:06:19.763Z,5.40
2018-09-29T22:09:02.363Z,6.50
2018-09-29T22:11:45.281Z,5.23
2018-09-29T22:14:27.992Z,5.30
2018-09-29T22:17:11.054Z,5.90
2018-09-29T22:19:53.576Z,5.70
2018-09-29T22:22:36.698Z,5.60
2018-09-29T22:25:19.461Z,5.30
2018-09-29T22:28:02.338Z,5.53
2018-09-29T22:30:45.438Z,5.17
2018-09-29T22:33:28.407Z,5.23
2018-09-29T22:36:11.549Z,5.70
2018-09-29T22:38:54.126Z,5.13
2018-09-29T22:41:37.314Z,5.57
2018-09-29T22:44:19.723Z,5.70
2018-09-29T22:47:03.209Z,5.43
2018-09-29T22:49:45.859Z,5.40
2018-09-29T22:52:28.444Z,5.57
2018-09-29T22:55:11.036Z,5.13
2018-09-29T22:57:53.886Z,6.27
2018-09-29T23:00:36.557Z,5.10
2018-09-29T23:03:19.903Z,5.43
2018-09-29T23:06:02.465Z,5.23
2018-09-29T23:08:48.160Z,5.23
2018-09-29T23:11:31.228Z,5.30
2018-09-29T23:14:13.810Z,5.70
2018-09-29T23:16:56.306Z,5.40
2018-09-29T23:19:39.011Z,5.83
2018-09-29T23:22:21.715Z,4.93
2018-09-29T23:25:04.943Z,5.80
2018-09-29T23:27:47.926Z,6.13
2018-09-29T23:30:30.700Z,5.80
2018-09-29T23:33:13.607Z,5.63
2018-09-29T23:35:56.422Z,5.03
2018-09-29T23:38:40.280Z,6.40
2018-09-29T23:41:22.978Z,5.40
2018-09-29T23:44:06.298Z,5.50
2018-09-29T23:46:48.646Z,4.70
2018-09-29T23:49:31.587Z,5.70
2018-09-29T23:52:14.357Z,5.43
2018-09-29T23:54:57.274Z,5.33
2018-09-29T23:57:40.284Z,5.60
